sensor_id;sensor_type;location;lat;lon;timestamp;pressure;altitude;pressure_sealevel;temperature;humidity
3544;BME280;1786;52.870;9.578;2022-09-09T00:01:34;99919.38;;;28.87;52.42
3544;BME280;1786;52.870;9.578;2022-09-09T00:06:59;99911.84;;;28.17;53.51
3544;BME280;1786;52.870;9.578;2022-09-09T00:09:32;99921.91;;;28.29;53.47
3544;BME280;1786;52.870;9.578;2022-09-09T00:12:14;99919.41;;;28.45;52.62
3544;BME280;1786;52.870;9.578;2022-09-09T00:14:56;99915.09;;;28.38;52.54
3544;BME280;1786;52.870;9.578;2022-09-09T00:17:41;99908.13;;;28.42;52.36
3544;BME280;1786;52.870;9.578;2022-09-09T00:23:32;99911.53;;;28.67;51.90
3544;BME280;1786;52.870;9.578;2022-09-09T00:26:16;99911.34;;;28.92;51.46
3544;BME280;1786;52.870;9.578;2022-09-09T00:29:18;99918.06;;;29.08;51.13
3544;BME280;1786;52.870;9.578;2022-09-09T00:31:48;99908.22;;;29.19;50.65
3544;BME280;1786;52.870;9.578;2022-09-09T00:34:21;99917.09;;;29.26;50.92
3544;BME280;1786;52.870;9.578;2022-09-09T00:36:50;99910.34;;;29.17;50.75
3544;BME280;1786;52.870;9.578;2022-09-09T00:42:14;99916.38;;;28.54;52.03
3544;BME280;1786;52.870;9.578;2022-09-09T00:44:53;99919.25;;;28.71;51.26
3544;BME280;1786;52.870;9.578;2022-09-09T00:47:49;99917.16;;;28.24;52.04
3544;BME280;1786;52.870;9.578;2022-09-09T00:50:39;99912.72;;;28.11;52.67
3544;BME280;1786;52.870;9.578;2022-09-09T00:58:35;99900.00;;;27.75;53.74
3544;BME280;1786;52.870;9.578;2022-09-09T01:01:06;99898.91;;;27.82;52.79
3544;BME280;1786;52.870;9.578;2022-09-09T01:03:36;99903.78;;;27.92;52.59
3544;BME280;1786;52.870;9.578;2022-09-09T01:17:01;99906.63;;;28.16;52.32
3544;BME280;1786;52.870;9.578;2022-09-09T01:20:02;99914.16;;;28.14;52.27
3544;BME280;1786;52.870;9.578;2022-09-09T01:28:28;99909.63;;;28.26;52.04
3544;BME280;1786;52.870;9.578;2022-09-09T01:31:03;99912.69;;;28.48;51.14
3544;BME280;1786;52.870;9.578;2022-09-09T01:33:37;99910.56;;;28.50;51.27
3544;BME280;1786;52.870;9.578;2022-09-09T01:38:52;99907.69;;;27.96;52.53
3544;BME280;1786;52.870;9.578;2022-09-09T01:41:20;99898.94;;;27.76;52.21
3544;BME280;1786;52.870;9.578;2022-09-09T01:43:59;99896.22;;;27.94;51.74
3544;BME280;1786;52.870;9.578;2022-09-09T01:46:27;99899.25;;;27.68;52.83
3544;BME280;1786;52.870;9.578;2022-09-09T01:48:56;99883.84;;;27.80;52.07
3544;BME280;1786;52.870;9.578;2022-09-09T01:51:23;99892.34;;;28.20;51.26
3544;BME280;1786;52.870;9.578;2022-09-09T01:53:51;99892.09;;;28.22;51.75
3544;BME280;1786;52.870;9.578;2022-09-09T01:56:26;99887.28;;;28.24;51.80
3544;BME280;1786;52.870;9.578;2022-09-09T02:12:54;99876.78;;;27.97;51.31
3544;BME280;1786;52.870;9.578;2022-09-09T02:15:28;99882.97;;;27.86;52.23
3544;BME280;1786;52.870;9.578;2022-09-09T02:17:58;99886.50;;;28.05;51.43
3544;BME280;1786;52.870;9.578;2022-09-09T02:20:29;99886.94;;;28.02;51.36
3544;BME280;1786;52.870;9.578;2022-09-09T02:23:01;99891.00;;;28.11;51.43
3544;BME280;1786;52.870;9.578;2022-09-09T02:25:29;99887.50;;;27.92;51.87
3544;BME280;1786;52.870;9.578;2022-09-09T02:28:07;99890.06;;;27.87;51.98
3544;BME280;1786;52.870;9.578;2022-09-09T02:30:37;99888.00;;;28.01;52.20
3544;BME280;1786;52.870;9.578;2022-09-09T02:33:07;99889.72;;;27.40;53.22
3544;BME280;1786;52.870;9.578;2022-09-09T02:35:43;99880.72;;;27.21;53.25
3544;BME280;1786;52.870;9.578;2022-09-09T02:38:14;99879.72;;;26.90;54.24
3544;BME280;1786;52.870;9.578;2022-09-09T02:40:52;99869.97;;;26.51;54.73
3544;BME280;1786;52.870;9.578;2022-09-09T02:43:19;99873.91;;;26.62;54.96
3544;BME280;1786;52.870;9.578;2022-09-09T02:46:00;99879.78;;;26.84;54.08
3544;BME280;1786;52.870;9.578;2022-09-09T02:48:36;99871.81;;;26.25;55.26
3544;BME280;1786;52.870;9.578;2022-09-09T02:51:16;99877.47;;;26.55;54.42
3544;BME280;1786;52.870;9.578;2022-09-09T02:54:03;99875.81;;;26.61;54.59
3544;BME280;1786;52.870;9.578;2022-09-09T02:56:38;99873.94;;;26.55;54.39
3544;BME280;1786;52.870;9.578;2022-09-09T02:59:07;99873.47;;;26.90;54.12
3544;BME280;1786;52.870;9.578;2022-09-09T03:01:35;99873.84;;;26.93;52.65
3544;BME280;1786;52.870;9.578;2022-09-09T03:04:02;99877.78;;;26.72;53.89
3544;BME280;1786;52.870;9.578;2022-09-09T03:06:32;99874.03;;;26.42;54.35
3544;BME280;1786;52.870;9.578;2022-09-09T03:09:08;99872.09;;;26.10;55.77
3544;BME280;1786;52.870;9.578;2022-09-09T03:11:37;99882.09;;;26.48;54.79
3544;BME280;1786;52.870;9.578;2022-09-09T03:14:05;99882.75;;;26.75;53.71
3544;BME280;1786;52.870;9.578;2022-09-09T03:16:34;99888.25;;;26.94;53.86
3544;BME280;1786;52.870;9.578;2022-09-09T03:19:01;99889.00;;;26.76;53.93
3544;BME280;1786;52.870;9.578;2022-09-09T03:21:28;99892.56;;;26.38;54.57
3544;BME280;1786;52.870;9.578;2022-09-09T03:23:56;99895.09;;;26.33;55.15
3544;BME280;1786;52.870;9.578;2022-09-09T03:26:23;99900.25;;;26.03;56.41
3544;BME280;1786;52.870;9.578;2022-09-09T03:28:50;99892.47;;;25.68;56.40
3544;BME280;1786;52.870;9.578;2022-09-09T03:31:20;99889.28;;;25.84;56.60
3544;BME280;1786;52.870;9.578;2022-09-09T03:33:47;99897.22;;;25.79;56.58
3544;BME280;1786;52.870;9.578;2022-09-09T03:36:16;99892.81;;;25.92;56.44
3544;BME280;1786;52.870;9.578;2022-09-09T03:38:43;99891.38;;;26.34;55.93
3544;BME280;1786;52.870;9.578;2022-09-09T03:41:11;99900.66;;;26.45;55.20
3544;BME280;1786;52.870;9.578;2022-09-09T03:43:39;99892.91;;;26.23;55.27
3544;BME280;1786;52.870;9.578;2022-09-09T03:46:05;99884.00;;;26.09;55.62
3544;BME280;1786;52.870;9.578;2022-09-09T03:48:32;99886.69;;;25.58;57.15
3544;BME280;1786;52.870;9.578;2022-09-09T03:50:59;99884.50;;;25.80;56.25
3544;BME280;1786;52.870;9.578;2022-09-09T03:53:30;99895.25;;;26.45;55.15
3544;BME280;1786;52.870;9.578;2022-09-09T03:55:57;99887.75;;;25.37;57.76
3544;BME280;1786;52.870;9.578;2022-09-09T03:58:27;99897.22;;;25.86;55.97
3544;BME280;1786;52.870;9.578;2022-09-09T04:01:00;99888.13;;;26.57;55.06
3544;BME280;1786;52.870;9.578;2022-09-09T04:03:28;99893.56;;;26.82;54.70
3544;BME280;1786;52.870;9.578;2022-09-09T04:05:56;99896.94;;;26.77;53.99
3544;BME280;1786;52.870;9.578;2022-09-09T04:08:26;99892.47;;;26.90;53.88
3544;BME280;1786;52.870;9.578;2022-09-09T04:10:53;99893.16;;;26.79;54.37
3544;BME280;1786;52.870;9.578;2022-09-09T04:13:25;99894.00;;;26.41;55.14
3544;BME280;1786;52.870;9.578;2022-09-09T04:15:58;99889.91;;;26.70;54.52
3544;BME280;1786;52.870;9.578;2022-09-09T04:18:25;99898.91;;;27.14;53.69
3544;BME280;1786;52.870;9.578;2022-09-09T04:20:53;99898.16;;;27.32;53.04
3544;BME280;1786;52.870;9.578;2022-09-09T04:23:24;99892.44;;;27.15;53.03
3544;BME280;1786;52.870;9.578;2022-09-09T04:25:53;99898.88;;;26.95;53.75
3544;BME280;1786;52.870;9.578;2022-09-09T04:28:22;99905.34;;;26.94;53.68
3544;BME280;1786;52.870;9.578;2022-09-09T04:30:50;99907.16;;;27.01;53.22
3544;BME280;1786;52.870;9.578;2022-09-09T04:33:17;99899.03;;;26.75;54.21
3544;BME280;1786;52.870;9.578;2022-09-09T04:35:49;99899.84;;;26.76;53.53
3544;BME280;1786;52.870;9.578;2022-09-09T04:38:17;99902.25;;;26.91;54.11
3544;BME280;1786;52.870;9.578;2022-09-09T04:40:49;99897.78;;;27.28;53.02
3544;BME280;1786;52.870;9.578;2022-09-09T04:43:18;99898.38;;;27.05;53.30
3544;BME280;1786;52.870;9.578;2022-09-09T04:45:50;99911.44;;;27.40;52.26
3544;BME280;1786;52.870;9.578;2022-09-09T04:48:20;99910.00;;;27.37;52.84
3544;BME280;1786;52.870;9.578;2022-09-09T04:50:59;99916.72;;;27.53;52.44
3544;BME280;1786;52.870;9.578;2022-09-09T04:53:29;99922.47;;;27.63;51.94
3544;BME280;1786;52.870;9.578;2022-09-09T04:56:02;99926.53;;;27.73;51.74
3544;BME280;1786;52.870;9.578;2022-09-09T04:58:32;99924.25;;;27.95;51.80
3544;BME280;1786;52.870;9.578;2022-09-09T05:01:07;99929.97;;;28.05;51.40
3544;BME280;1786;52.870;9.578;2022-09-09T05:03:36;99922.09;;;27.97;50.98
3544;BME280;1786;52.870;9.578;2022-09-09T05:06:08;99925.66;;;27.97;51.03
3544;BME280;1786;52.870;9.578;2022-09-09T05:08:37;99928.63;;;28.26;50.82
3544;BME280;1786;52.870;9.578;2022-09-09T05:11:22;99925.16;;;28.19;50.46
3544;BME280;1786;52.870;9.578;2022-09-09T05:13:52;99926.84;;;27.65;51.98
3544;BME280;1786;52.870;9.578;2022-09-09T05:16:20;99929.94;;;27.87;51.81
3544;BME280;1786;52.870;9.578;2022-09-09T05:18:47;99934.38;;;27.81;51.65
3544;BME280;1786;52.870;9.578;2022-09-09T05:21:17;99932.28;;;27.65;51.83
3544;BME280;1786;52.870;9.578;2022-09-09T05:23:45;99935.84;;;27.83;51.59
3544;BME280;1786;52.870;9.578;2022-09-09T05:26:17;99940.53;;;27.51;52.17
3544;BME280;1786;52.870;9.578;2022-09-09T05:28:47;99936.78;;;27.52;52.50
3544;BME280;1786;52.870;9.578;2022-09-09T05:31:16;99933.06;;;27.47;52.62
3544;BME280;1786;52.870;9.578;2022-09-09T05:33:46;99932.91;;;27.41;52.64
3544;BME280;1786;52.870;9.578;2022-09-09T05:36:17;99936.19;;;27.50;52.65
3544;BME280;1786;52.870;9.578;2022-09-09T05:38:45;99939.22;;;27.10;53.81
3544;BME280;1786;52.870;9.578;2022-09-09T05:41:13;99946.06;;;27.45;53.83
3544;BME280;1786;52.870;9.578;2022-09-09T05:43:42;99947.50;;;27.66;52.96
3544;BME280;1786;52.870;9.578;2022-09-09T05:46:19;99951.44;;;28.07;52.26
3544;BME280;1786;52.870;9.578;2022-09-09T05:48:49;99956.44;;;28.40;51.42
3544;BME280;1786;52.870;9.578;2022-09-09T05:51:24;99953.97;;;28.38;51.13
3544;BME280;1786;52.870;9.578;2022-09-09T05:53:52;99956.22;;;28.41;51.82
3544;BME280;1786;52.870;9.578;2022-09-09T05:56:23;99973.59;;;28.59;51.60
3544;BME280;1786;52.870;9.578;2022-09-09T05:58:52;99968.06;;;28.65;50.98
3544;BME280;1786;52.870;9.578;2022-09-09T06:01:26;99960.16;;;28.27;52.43
3544;BME280;1786;52.870;9.578;2022-09-09T06:03:53;99969.91;;;28.53;51.80
3544;BME280;1786;52.870;9.578;2022-09-09T06:06:25;99964.94;;;28.50;51.82
3544;BME280;1786;52.870;9.578;2022-09-09T06:08:57;99970.53;;;28.67;51.26
3544;BME280;1786;52.870;9.578;2022-09-09T06:11:28;99967.31;;;28.58;52.00
3544;BME280;1786;52.870;9.578;2022-09-09T06:13:59;99970.25;;;28.57;51.31
3544;BME280;1786;52.870;9.578;2022-09-09T06:16:28;99971.47;;;28.61;51.92
3544;BME280;1786;52.870;9.578;2022-09-09T06:18:56;99977.91;;;28.78;51.86
3544;BME280;1786;52.870;9.578;2022-09-09T06:21:27;99974.59;;;28.76;51.32
3544;BME280;1786;52.870;9.578;2022-09-09T06:23:54;99969.72;;;29.20;50.71
3544;BME280;1786;52.870;9.578;2022-09-09T06:26:31;99971.41;;;29.45;50.74
3544;BME280;1786;52.870;9.578;2022-09-09T06:29:02;99967.97;;;29.96;51.01
3544;BME280;1786;52.870;9.578;2022-09-09T06:31:33;99968.09;;;29.90;50.20
3544;BME280;1786;52.870;9.578;2022-09-09T06:34:10;99979.22;;;30.69;49.31
3544;BME280;1786;52.870;9.578;2022-09-09T06:36:40;99977.09;;;31.34;49.37
3544;BME280;1786;52.870;9.578;2022-09-09T06:39:07;99988.28;;;32.49;48.31
3544;BME280;1786;52.870;9.578;2022-09-09T06:41:40;99993.03;;;33.50;45.31
3544;BME280;1786;52.870;9.578;2022-09-09T06:44:45;99991.59;;;34.28;42.67
3544;BME280;1786;52.870;9.578;2022-09-09T06:47:19;99996.81;;;34.39;42.61
3544;BME280;1786;52.870;9.578;2022-09-09T06:49:46;99998.50;;;34.51;43.19
3544;BME280;1786;52.870;9.578;2022-09-09T06:52:15;99999.59;;;34.55;43.42
3544;BME280;1786;52.870;9.578;2022-09-09T06:54:42;99996.84;;;34.50;43.26
3544;BME280;1786;52.870;9.578;2022-09-09T06:57:09;99990.69;;;34.12;42.84
3544;BME280;1786;52.870;9.578;2022-09-09T06:59:56;99987.97;;;34.22;43.93
3544;BME280;1786;52.870;9.578;2022-09-09T07:02:23;99980.13;;;33.88;43.97
3544;BME280;1786;52.870;9.578;2022-09-09T07:04:51;99978.69;;;33.38;44.36
3544;BME280;1786;52.870;9.578;2022-09-09T07:07:19;99982.91;;;32.86;46.48
3544;BME280;1786;52.870;9.578;2022-09-09T07:09:46;99981.38;;;34.08;47.18
3544;BME280;1786;52.870;9.578;2022-09-09T07:12:14;99988.72;;;35.72;42.41
3544;BME280;1786;52.870;9.578;2022-09-09T07:14:48;99995.44;;;36.21;40.39
3544;BME280;1786;52.870;9.578;2022-09-09T07:17:15;99988.47;;;35.69;41.40
3544;BME280;1786;52.870;9.578;2022-09-09T07:19:42;99986.56;;;35.59;41.52
3544;BME280;1786;52.870;9.578;2022-09-09T07:22:09;99986.53;;;35.03;42.45
3544;BME280;1786;52.870;9.578;2022-09-09T07:24:38;99992.56;;;35.05;42.38
3544;BME280;1786;52.870;9.578;2022-09-09T07:27:06;100002.16;;;34.82;42.50
3544;BME280;1786;52.870;9.578;2022-09-09T07:29:33;99997.56;;;35.23;44.32
3544;BME280;1786;52.870;9.578;2022-09-09T07:32:00;100001.09;;;36.45;42.89
3544;BME280;1786;52.870;9.578;2022-09-09T07:34:32;100002.41;;;37.37;40.02
3544;BME280;1786;52.870;9.578;2022-09-09T07:36:58;100001.72;;;38.27;39.20
3544;BME280;1786;52.870;9.578;2022-09-09T07:39:25;100008.44;;;38.40;38.22
3544;BME280;1786;52.870;9.578;2022-09-09T07:41:53;100013.34;;;39.05;39.16
3544;BME280;1786;52.870;9.578;2022-09-09T07:44:24;100009.81;;;39.18;38.27
3544;BME280;1786;52.870;9.578;2022-09-09T07:47:13;100011.75;;;39.37;38.42
3544;BME280;1786;52.870;9.578;2022-09-09T07:49:45;100017.44;;;39.27;38.76
3544;BME280;1786;52.870;9.578;2022-09-09T07:52:16;100012.69;;;38.32;38.74
3544;BME280;1786;52.870;9.578;2022-09-09T07:54:48;100016.72;;;38.21;41.22
3544;BME280;1786;52.870;9.578;2022-09-09T07:57:16;100017.00;;;38.44;39.71
3544;BME280;1786;52.870;9.578;2022-09-09T07:59:45;100013.69;;;37.99;38.79
3544;BME280;1786;52.870;9.578;2022-09-09T08:02:12;100022.53;;;37.96;40.25
3544;BME280;1786;52.870;9.578;2022-09-09T08:04:39;100020.50;;;37.53;40.52
3544;BME280;1786;52.870;9.578;2022-09-09T08:07:06;100013.34;;;37.18;40.02
3544;BME280;1786;52.870;9.578;2022-09-09T08:09:40;100013.25;;;36.34;41.28
3544;BME280;1786;52.870;9.578;2022-09-09T08:12:13;100004.13;;;36.44;42.08
3544;BME280;1786;52.870;9.578;2022-09-09T08:14:40;100009.16;;;36.36;42.15
3544;BME280;1786;52.870;9.578;2022-09-09T08:17:07;100018.00;;;36.78;41.29
3544;BME280;1786;52.870;9.578;2022-09-09T08:19:34;100014.28;;;35.58;42.33
3544;BME280;1786;52.870;9.578;2022-09-09T08:22:05;100018.97;;;35.26;43.17
3544;BME280;1786;52.870;9.578;2022-09-09T08:24:34;100023.34;;;35.68;43.30
3544;BME280;1786;52.870;9.578;2022-09-09T08:27:02;100025.81;;;36.60;42.11
3544;BME280;1786;52.870;9.578;2022-09-09T08:29:28;100018.59;;;36.75;43.20
3544;BME280;1786;52.870;9.578;2022-09-09T08:31:57;100028.88;;;38.20;41.66
3544;BME280;1786;52.870;9.578;2022-09-09T08:34:25;100037.06;;;40.05;38.74
3544;BME280;1786;52.870;9.578;2022-09-09T08:36:55;100035.88;;;41.42;37.30
3544;BME280;1786;52.870;9.578;2022-09-09T08:39:28;100048.69;;;42.14;36.58
3544;BME280;1786;52.870;9.578;2022-09-09T08:45:16;100048.66;;;40.84;35.87
3544;BME280;1786;52.870;9.578;2022-09-09T08:47:57;100047.66;;;40.80;36.36
3544;BME280;1786;52.870;9.578;2022-09-09T08:50:30;100050.34;;;40.58;36.21
3544;BME280;1786;52.870;9.578;2022-09-09T08:58:18;100041.97;;;39.80;37.40
3544;BME280;1786;52.870;9.578;2022-09-09T09:03:53;100046.94;;;38.56;38.76
3544;BME280;1786;52.870;9.578;2022-09-09T09:06:41;100051.66;;;39.12;38.74
3544;BME280;1786;52.870;9.578;2022-09-09T09:09:19;100053.66;;;39.44;38.33
3544;BME280;1786;52.870;9.578;2022-09-09T09:11:53;100039.56;;;38.89;39.21
3544;BME280;1786;52.870;9.578;2022-09-09T09:14:24;100034.91;;;38.65;39.66
3544;BME280;1786;52.870;9.578;2022-09-09T09:16:58;100040.72;;;37.97;40.34
3544;BME280;1786;52.870;9.578;2022-09-09T09:19:28;100042.28;;;38.94;38.93
3544;BME280;1786;52.870;9.578;2022-09-09T09:22:21;100047.81;;;39.46;37.96
3544;BME280;1786;52.870;9.578;2022-09-09T09:25:11;100036.34;;;38.63;39.38
3544;BME280;1786;52.870;9.578;2022-09-09T09:27:57;100049.16;;;38.10;41.00
3544;BME280;1786;52.870;9.578;2022-09-09T09:30:35;100048.59;;;38.32;39.01
3544;BME280;1786;52.870;9.578;2022-09-09T09:33:18;100043.59;;;38.59;40.43
3544;BME280;1786;52.870;9.578;2022-09-09T09:35:49;100044.69;;;38.58;38.95
3544;BME280;1786;52.870;9.578;2022-09-09T09:38:23;100036.13;;;36.84;40.28
3544;BME280;1786;52.870;9.578;2022-09-09T09:41:11;100034.59;;;36.68;41.05
3544;BME280;1786;52.870;9.578;2022-09-09T09:43:40;100038.09;;;36.78;40.16
3544;BME280;1786;52.870;9.578;2022-09-09T09:46:22;100033.81;;;35.25;42.12
3544;BME280;1786;52.870;9.578;2022-09-09T09:49:03;100029.44;;;34.31;44.23
3544;BME280;1786;52.870;9.578;2022-09-09T09:51:33;100022.50;;;34.81;45.03
3544;BME280;1786;52.870;9.578;2022-09-09T09:56:42;100024.78;;;34.36;44.20
3544;BME280;1786;52.870;9.578;2022-09-09T10:02:21;100015.84;;;33.24;45.81
3544;BME280;1786;52.870;9.578;2022-09-09T10:05:05;100012.06;;;33.62;46.89
3544;BME280;1786;52.870;9.578;2022-09-09T10:07:34;100013.31;;;34.55;44.51
3544;BME280;1786;52.870;9.578;2022-09-09T10:10:04;100014.81;;;34.93;43.55
3544;BME280;1786;52.870;9.578;2022-09-09T10:12:50;100021.03;;;34.53;44.68
3544;BME280;1786;52.870;9.578;2022-09-09T10:23:52;100015.66;;;34.94;43.58
3544;BME280;1786;52.870;9.578;2022-09-09T10:26:35;100017.97;;;33.91;45.20
3544;BME280;1786;52.870;9.578;2022-09-09T10:29:18;100010.22;;;34.20;44.54
3544;BME280;1786;52.870;9.578;2022-09-09T10:32:22;100008.09;;;34.48;44.00
3544;BME280;1786;52.870;9.578;2022-09-09T10:35:04;100003.69;;;33.84;45.12
3544;BME280;1786;52.870;9.578;2022-09-09T10:41:00;99986.22;;;34.68;44.27
3544;BME280;1786;52.870;9.578;2022-09-09T10:49:30;99998.59;;;34.81;44.85
3544;BME280;1786;52.870;9.578;2022-09-09T10:55:02;99990.66;;;35.46;42.08
3544;BME280;1786;52.870;9.578;2022-09-09T10:57:40;99996.97;;;34.85;43.80
3544;BME280;1786;52.870;9.578;2022-09-09T11:03:04;99998.84;;;34.69;42.93
3544;BME280;1786;52.870;9.578;2022-09-09T11:08:05;100005.22;;;35.72;42.16
3544;BME280;1786;52.870;9.578;2022-09-09T11:13:51;100008.72;;;36.09;43.69
3544;BME280;1786;52.870;9.578;2022-09-09T11:16:40;99990.38;;;35.63;41.96
3544;BME280;1786;52.870;9.578;2022-09-09T11:21:46;99998.03;;;35.82;43.47
3544;BME280;1786;52.870;9.578;2022-09-09T11:24:23;100000.25;;;35.80;44.70
3544;BME280;1786;52.870;9.578;2022-09-09T11:27:17;99984.31;;;34.06;47.50
3544;BME280;1786;52.870;9.578;2022-09-09T11:33:01;99995.78;;;34.51;44.39
3544;BME280;1786;52.870;9.578;2022-09-09T11:38:27;100002.44;;;35.78;44.57
3544;BME280;1786;52.870;9.578;2022-09-09T11:41:02;100002.78;;;36.36;43.32
3544;BME280;1786;52.870;9.578;2022-09-09T11:43:46;99992.84;;;35.70;43.76
3544;BME280;1786;52.870;9.578;2022-09-09T11:46:14;99999.94;;;35.91;45.08
3544;BME280;1786;52.870;9.578;2022-09-09T11:48:45;99993.56;;;36.06;41.64
3544;BME280;1786;52.870;9.578;2022-09-09T11:51:25;99996.66;;;36.54;41.09
3544;BME280;1786;52.870;9.578;2022-09-09T11:54:30;100000.41;;;36.74;42.36
3544;BME280;1786;52.870;9.578;2022-09-09T11:56:58;100001.75;;;36.76;44.68
3544;BME280;1786;52.870;9.578;2022-09-09T11:59:31;100004.16;;;36.88;43.33
3544;BME280;1786;52.870;9.578;2022-09-09T12:01:59;100012.88;;;37.06;44.38
3544;BME280;1786;52.870;9.578;2022-09-09T12:04:39;100018.28;;;36.22;44.79
3544;BME280;1786;52.870;9.578;2022-09-09T12:10:01;100019.88;;;36.33;42.83
3544;BME280;1786;52.870;9.578;2022-09-09T12:12:38;100034.31;;;36.64;40.11
3544;BME280;1786;52.870;9.578;2022-09-09T12:17:41;100016.50;;;34.16;45.36
3544;BME280;1786;52.870;9.578;2022-09-09T12:22:50;100013.22;;;34.24;44.75
3544;BME280;1786;52.870;9.578;2022-09-09T12:25:47;100016.69;;;33.61;46.24
3544;BME280;1786;52.870;9.578;2022-09-09T12:28:24;100027.34;;;33.26;47.01
3544;BME280;1786;52.870;9.578;2022-09-09T12:31:02;100035.06;;;33.02;45.89
3544;BME280;1786;52.870;9.578;2022-09-09T12:33:39;100043.59;;;33.32;46.02
3544;BME280;1786;52.870;9.578;2022-09-09T12:36:15;100039.75;;;32.52;46.70
3544;BME280;1786;52.870;9.578;2022-09-09T12:38:43;100041.66;;;32.51;47.52
3544;BME280;1786;52.870;9.578;2022-09-09T12:41:36;100040.59;;;32.80;47.53
3544;BME280;1786;52.870;9.578;2022-09-09T12:44:10;100048.06;;;33.11;48.15
3544;BME280;1786;52.870;9.578;2022-09-09T12:46:40;100036.84;;;33.13;46.79
3544;BME280;1786;52.870;9.578;2022-09-09T12:49:27;100025.09;;;33.50;47.21
3544;BME280;1786;52.870;9.578;2022-09-09T12:51:55;100021.88;;;33.58;46.89
3544;BME280;1786;52.870;9.578;2022-09-09T12:54:23;100014.84;;;33.67;46.51
3544;BME280;1786;52.870;9.578;2022-09-09T12:56:50;100009.97;;;33.10;47.88
3544;BME280;1786;52.870;9.578;2022-09-09T12:59:25;100001.44;;;33.06;46.96
3544;BME280;1786;52.870;9.578;2022-09-09T13:01:57;100007.03;;;32.18;47.83
3544;BME280;1786;52.870;9.578;2022-09-09T13:04:25;100002.31;;;32.85;47.75
3544;BME280;1786;52.870;9.578;2022-09-09T13:06:52;100001.84;;;32.66;47.65
3544;BME280;1786;52.870;9.578;2022-09-09T13:09:19;99993.97;;;32.25;47.39
3544;BME280;1786;52.870;9.578;2022-09-09T13:11:52;100005.44;;;32.66;47.38
3544;BME280;1786;52.870;9.578;2022-09-09T13:14:29;100007.66;;;32.69;46.53
3544;BME280;1786;52.870;9.578;2022-09-09T13:16:58;100010.50;;;33.07;45.87
3544;BME280;1786;52.870;9.578;2022-09-09T13:19:29;100022.31;;;32.85;46.36
3544;BME280;1786;52.870;9.578;2022-09-09T13:21:58;100018.28;;;32.93;46.10
3544;BME280;1786;52.870;9.578;2022-09-09T13:24:26;100017.09;;;32.84;45.91
3544;BME280;1786;52.870;9.578;2022-09-09T13:27:00;100021.47;;;32.85;47.20
3544;BME280;1786;52.870;9.578;2022-09-09T13:29:31;100008.94;;;32.40;46.79
3544;BME280;1786;52.870;9.578;2022-09-09T13:32:17;100007.34;;;32.44;46.72
3544;BME280;1786;52.870;9.578;2022-09-09T13:34:56;100016.19;;;32.29;47.13
3544;BME280;1786;52.870;9.578;2022-09-09T13:37:28;100010.97;;;32.27;47.05
3544;BME280;1786;52.870;9.578;2022-09-09T13:39:57;100018.09;;;32.50;46.98
3544;BME280;1786;52.870;9.578;2022-09-09T13:42:27;100028.88;;;32.84;46.54
3544;BME280;1786;52.870;9.578;2022-09-09T13:44:56;100011.44;;;31.63;47.98
3544;BME280;1786;52.870;9.578;2022-09-09T13:47:31;100008.28;;;32.32;47.18
3544;BME280;1786;52.870;9.578;2022-09-09T13:49:58;100011.72;;;32.23;47.52
3544;BME280;1786;52.870;9.578;2022-09-09T13:52:26;100011.81;;;32.06;48.14
3544;BME280;1786;52.870;9.578;2022-09-09T13:54:53;100007.53;;;31.59;49.85
3544;BME280;1786;52.870;9.578;2022-09-09T13:57:23;100009.06;;;30.88;51.18
3544;BME280;1786;52.870;9.578;2022-09-09T13:59:54;100003.75;;;31.43;50.42
3544;BME280;1786;52.870;9.578;2022-09-09T14:02:31;99996.53;;;31.71;48.25
3544;BME280;1786;52.870;9.578;2022-09-09T14:04:57;99994.63;;;31.55;48.71
3544;BME280;1786;52.870;9.578;2022-09-09T14:07:24;99997.94;;;31.74;48.27
3544;BME280;1786;52.870;9.578;2022-09-09T14:09:51;100002.31;;;32.14;48.77
3544;BME280;1786;52.870;9.578;2022-09-09T14:12:19;99997.88;;;32.51;47.73
3544;BME280;1786;52.870;9.578;2022-09-09T14:14:46;99989.59;;;32.73;46.80
3544;BME280;1786;52.870;9.578;2022-09-09T14:17:13;99982.44;;;32.94;45.96
3544;BME280;1786;52.870;9.578;2022-09-09T14:19:40;99988.78;;;33.00;45.81
3544;BME280;1786;52.870;9.578;2022-09-09T14:22:07;99989.59;;;33.28;45.65
3544;BME280;1786;52.870;9.578;2022-09-09T14:24:34;99997.06;;;33.05;46.51
3544;BME280;1786;52.870;9.578;2022-09-09T14:27:00;99993.50;;;33.37;45.13
3544;BME280;1786;52.870;9.578;2022-09-09T14:29:27;99992.44;;;33.43;44.48
3544;BME280;1786;52.870;9.578;2022-09-09T14:31:54;100002.63;;;33.90;45.33
3544;BME280;1786;52.870;9.578;2022-09-09T14:34:21;99992.34;;;34.13;44.67
3544;BME280;1786;52.870;9.578;2022-09-09T14:36:47;99985.59;;;33.83;44.56
3544;BME280;1786;52.870;9.578;2022-09-09T14:39:14;99984.16;;;34.23;43.83
3544;BME280;1786;52.870;9.578;2022-09-09T14:41:41;99978.06;;;34.11;43.63
3544;BME280;1786;52.870;9.578;2022-09-09T14:44:08;99979.09;;;34.04;42.90
3544;BME280;1786;52.870;9.578;2022-09-09T14:46:35;99977.66;;;33.87;42.99
3544;BME280;1786;52.870;9.578;2022-09-09T14:49:02;99964.00;;;33.97;44.17
3544;BME280;1786;52.870;9.578;2022-09-09T14:51:29;99963.03;;;34.23;43.46
3544;BME280;1786;52.870;9.578;2022-09-09T14:53:57;99951.97;;;34.03;42.00
3544;BME280;1786;52.870;9.578;2022-09-09T14:56:27;99950.38;;;34.07;41.21
3544;BME280;1786;52.870;9.578;2022-09-09T14:58:55;99946.47;;;33.50;42.52
3544;BME280;1786;52.870;9.578;2022-09-09T15:01:23;99949.63;;;33.32;42.56
3544;BME280;1786;52.870;9.578;2022-09-09T15:04:02;99948.28;;;32.70;42.76
3544;BME280;1786;52.870;9.578;2022-09-09T15:06:33;99957.81;;;32.94;43.14
3544;BME280;1786;52.870;9.578;2022-09-09T15:09:00;99958.09;;;32.98;43.11
3544;BME280;1786;52.870;9.578;2022-09-09T15:11:30;99966.63;;;33.34;42.59
3544;BME280;1786;52.870;9.578;2022-09-09T15:13:57;99963.84;;;33.66;41.88
3544;BME280;1786;52.870;9.578;2022-09-09T15:16:27;99971.69;;;33.52;42.68
3544;BME280;1786;52.870;9.578;2022-09-09T15:18:56;99971.59;;;33.37;43.26
3544;BME280;1786;52.870;9.578;2022-09-09T15:21:25;99971.06;;;33.40;43.77
3544;BME280;1786;52.870;9.578;2022-09-09T15:23:54;99962.91;;;33.93;43.92
3544;BME280;1786;52.870;9.578;2022-09-09T15:26:21;99971.94;;;33.51;44.43
3544;BME280;1786;52.870;9.578;2022-09-09T15:28:48;99983.31;;;33.00;46.34
3544;BME280;1786;52.870;9.578;2022-09-09T15:31:19;99993.91;;;32.42;48.12
3544;BME280;1786;52.870;9.578;2022-09-09T15:33:47;99988.19;;;32.00;49.43
3544;BME280;1786;52.870;9.578;2022-09-09T15:36:25;99974.56;;;31.83;49.79